createdAt,value
2022-11-09T00:01:34.964Z,944.26
2022-11-09T00:01:44.941Z,944.29
2022-11-09T00:01:54.966Z,944.28
2022-11-09T00:02:04.947Z,944.28
2022-11-09T00:02:14.940Z,944.29
2022-11-09T00:02:24.954Z,944.28
2022-11-09T00:02:34.960Z,944.29
2022-11-09T00:02:44.941Z,944.26
2022-11-09T00:02:54.941Z,944.30
2022-11-09T00:03:04.944Z,944.31
2022-11-09T00:03:15.014Z,944.28
2022-11-09T00:03:24.990Z,944.31
2022-11-09T00:03:34.945Z,944.29
2022-11-09T00:03:44.948Z,944.29
2022-11-09T00:03:54.948Z,944.28
2022-11-09T00:04:04.944Z,944.23
2022-11-09T00:04:14.947Z,944.30
2022-11-09T00:04:24.959Z,944.32
2022-11-09T00:04:34.948Z,944.31
2022-11-09T00:04:44.947Z,944.24
2022-11-09T00:04:54.954Z,944.28
2022-11-09T00:05:04.950Z,944.24
2022-11-09T00:05:14.952Z,944.24
2022-11-09T00:05:24.975Z,944.25
2022-11-09T00:05:34.951Z,944.27
2022-11-09T00:05:44.952Z,944.25
2022-11-09T00:05:54.956Z,944.25
2022-11-09T00:06:04.956Z,944.23
2022-11-09T00:06:14.965Z,944.18
2022-11-09T00:06:24.983Z,944.12
2022-11-09T00:06:35.023Z,944.17
2022-11-09T00:06:45.059Z,944.11
2022-11-09T00:06:55.018Z,944.15
2022-11-09T00:07:05.029Z,944.10
2022-11-09T00:07:15.037Z,944.18
2022-11-09T00:07:24.972Z,944.10
2022-11-09T00:07:34.981Z,944.23
2022-11-09T00:07:44.964Z,944.24
2022-11-09T00:07:54.965Z,944.24
2022-11-09T00:08:04.967Z,944.22
2022-11-09T00:08:14.966Z,944.24
2022-11-09T00:08:24.971Z,944.25
2022-11-09T00:08:34.983Z,944.23
2022-11-09T00:08:44.976Z,944.26
2022-11-09T00:08:54.976Z,944.27
2022-11-09T00:09:07.921Z,944.25
2022-11-09T00:09:15.055Z,944.23
2022-11-09T00:09:24.991Z,944.30
2022-11-09T00:09:35.045Z,944.22
2022-11-09T00:09:45.020Z,944.23
2022-11-09T00:09:55.016Z,944.24
2022-11-09T00:10:05.033Z,944.18
2022-11-09T00:10:23.372Z,944.18
2022-11-09T00:10:24.972Z,944.18
2022-11-09T00:10:34.990Z,944.17
2022-11-09T00:10:44.986Z,944.18
2022-11-09T00:11:02.871Z,944.16
2022-11-09T00:11:05.001Z,944.13
2022-11-09T00:11:14.983Z,944.15
2022-11-09T00:11:37.391Z,944.14
2022-11-09T00:11:37.731Z,944.19
2022-11-09T00:11:47.727Z,944.18
2022-11-09T00:11:57.734Z,944.17
2022-11-09T00:12:07.720Z,944.14
2022-11-09T00:12:17.720Z,944.10
2022-11-09T00:12:27.719Z,944.14
2022-11-09T00:12:37.740Z,944.17
2022-11-09T00:12:47.740Z,944.17
2022-11-09T00:12:57.728Z,944.17
2022-11-09T00:13:07.723Z,944.14
2022-11-09T00:13:18.155Z,944.09
2022-11-09T00:13:27.720Z,944.11
2022-11-09T00:13:37.738Z,944.16
2022-11-09T00:13:47.736Z,944.15
2022-11-09T00:13:57.726Z,944.17
2022-11-09T00:14:07.726Z,944.14
2022-11-09T00:14:17.725Z,944.16
2022-11-09T00:14:27.723Z,944.15
2022-11-09T00:14:37.727Z,944.19
2022-11-09T00:14:47.762Z,944.17
2022-11-09T00:14:57.727Z,944.09
2022-11-09T00:15:07.739Z,944.15
2022-11-09T00:15:17.729Z,944.14
2022-11-09T00:15:27.726Z,944.13
2022-11-09T00:15:37.733Z,944.14
2022-11-09T00:15:47.738Z,944.10
2022-11-09T00:15:57.748Z,944.10
2022-11-09T00:16:07.757Z,944.13
2022-11-09T00:16:17.737Z,944.11
2022-11-09T00:16:27.736Z,944.12
2022-11-09T00:16:37.737Z,944.11
2022-11-09T00:16:47.736Z,944.10
2022-11-09T00:16:57.735Z,944.09
2022-11-09T00:17:07.745Z,944.14
2022-11-09T00:17:17.779Z,944.17
2022-11-09T00:17:27.741Z,944.17
2022-11-09T00:17:37.746Z,944.16
2022-11-09T00:17:47.745Z,944.07
2022-11-09T00:17:57.741Z,944.23
2022-11-09T00:18:07.741Z,944.22
2022-11-09T00:18:17.741Z,944.19
2022-11-09T00:18:27.758Z,944.23
2022-11-09T00:18:37.749Z,944.25
2022-11-09T00:18:47.744Z,944.25
2022-11-09T00:18:57.744Z,944.21
2022-11-09T00:19:07.758Z,944.20
2022-11-09T00:19:17.747Z,944.24
2022-11-09T00:19:27.794Z,944.24
2022-11-09T00:19:37.889Z,944.19
2022-11-09T00:19:47.755Z,944.19
2022-11-09T00:19:57.750Z,944.22
2022-11-09T00:20:07.751Z,944.20
2022-11-09T00:20:17.748Z,944.20
2022-11-09T00:20:27.766Z,944.21
2022-11-09T00:21:44.227Z,944.17
2022-11-09T00:21:54.205Z,944.17
2022-11-09T00:22:04.232Z,944.16
2022-11-09T00:22:14.198Z,944.15
2022-11-09T00:22:24.203Z,944.16
2022-11-09T00:22:34.215Z,944.18
2022-11-09T00:22:44.203Z,944.17
2022-11-09T00:22:54.203Z,944.16
2022-11-09T00:23:04.207Z,944.18
2022-11-09T00:23:14.204Z,944.18
2022-11-09T00:23:24.217Z,944.17
2022-11-09T00:23:34.205Z,944.13
2022-11-09T00:23:44.205Z,944.19
2022-11-09T00:23:54.210Z,944.16
2022-11-09T00:24:04.226Z,944.15
2022-11-09T00:24:14.212Z,944.17
2022-11-09T00:24:24.231Z,944.12
2022-11-09T00:24:34.215Z,944.15
2022-11-09T00:24:44.213Z,944.15
2022-11-09T00:24:54.216Z,944.16
2022-11-09T00:25:04.216Z,944.19
2022-11-09T00:25:14.209Z,944.16
2022-11-09T00:25:24.225Z,944.17
2022-11-09T00:25:34.213Z,944.16
2022-11-09T00:25:44.216Z,944.15
2022-11-09T00:25:54.216Z,944.09
2022-11-09T00:26:04.219Z,944.11
2022-11-09T00:26:14.226Z,944.11
2022-11-09T00:26:24.230Z,944.12
2022-11-09T00:26:34.228Z,944.11
2022-11-09T00:26:44.220Z,944.16
2022-11-09T00:26:54.221Z,944.11
2022-11-09T00:27:04.227Z,944.10
2022-11-09T00:27:17.613Z,944.08
2022-11-09T00:27:24.221Z,944.07
2022-11-09T00:27:34.248Z,944.07
2022-11-09T00:27:44.224Z,944.05
2022-11-09T00:27:54.239Z,944.05
2022-11-09T00:28:04.225Z,944.04
2022-11-09T00:28:14.229Z,944.02
2022-11-09T00:28:24.227Z,943.99
2022-11-09T00:28:35.227Z,944.05
2022-11-09T00:28:44.229Z,944.05
2022-11-09T00:28:54.228Z,944.02
2022-11-09T00:29:04.238Z,944.06
2022-11-09T00:29:14.233Z,944.08
2022-11-09T00:29:24.250Z,944.08
2022-11-09T00:29:34.237Z,944.09
2022-11-09T00:29:44.252Z,944.07
2022-11-09T00:29:54.234Z,944.10
2022-11-09T00:30:04.237Z,944.11
2022-11-09T00:30:14.231Z,944.06
2022-11-09T00:30:24.237Z,944.11
2022-11-09T00:30:34.247Z,944.10
2022-11-09T00:30:44.261Z,944.11
2022-11-09T00:31:59.294Z,944.08
2022-11-09T00:32:09.317Z,944.08
2022-11-09T00:32:21.953Z,944.05
2022-11-09T00:34:29.194Z,944.06
2022-11-09T00:35:44.269Z,944.06
2022-11-09T00:35:54.238Z,944.01
2022-11-09T00:36:04.233Z,944.05
2022-11-09T00:36:14.245Z,944.06
2022-11-09T00:36:24.239Z,944.05
2022-11-09T00:36:34.233Z,944.08
2022-11-09T00:36:44.247Z,944.04
2022-11-09T00:36:54.235Z,944.07
2022-11-09T00:37:04.249Z,944.05
2022-11-09T00:37:14.264Z,944.05
2022-11-09T00:37:24.295Z,944.04
2022-11-09T00:37:34.312Z,944.05
2022-11-09T00:37:44.297Z,944.04
2022-11-09T00:37:54.297Z,944.02
2022-11-09T00:38:04.301Z,944.04
2022-11-09T00:38:14.244Z,944.06
2022-11-09T00:38:24.240Z,944.05
2022-11-09T00:38:34.266Z,944.05
2022-11-09T00:38:44.265Z,944.03
2022-11-09T00:38:54.245Z,944.04
2022-11-09T00:39:04.246Z,944.01
2022-11-09T00:39:14.248Z,944.01
2022-11-09T00:39:24.246Z,944.04
2022-11-09T00:39:34.248Z,944.06
2022-11-09T00:39:44.273Z,944.04
2022-11-09T00:39:54.253Z,944.05
2022-11-09T00:40:04.259Z,944.09
2022-11-09T00:40:14.262Z,944.07
2022-11-09T00:40:24.249Z,944.06
2022-11-09T00:40:34.263Z,944.06
2022-11-09T00:40:44.254Z,944.04
2022-11-09T00:40:54.274Z,944.04
2022-11-09T00:41:04.255Z,944.05
2022-11-09T00:41:14.274Z,944.03
2022-11-09T00:41:24.259Z,944.04
2022-11-09T00:41:34.255Z,944.03
2022-11-09T00:41:44.262Z,944.03
2022-11-09T00:41:54.260Z,944.01
2022-11-09T00:42:04.272Z,944.01
2022-11-09T00:42:14.261Z,943.99
2022-11-09T00:42:24.264Z,943.98
2022-11-09T00:42:34.269Z,943.98
2022-11-09T00:42:44.264Z,943.98
2022-11-09T00:42:54.261Z,943.99
2022-11-09T00:43:04.283Z,944.02
2022-11-09T00:43:14.272Z,944.03
2022-11-09T00:43:24.266Z,944.02
2022-11-09T00:43:34.262Z,943.99
2022-11-09T00:43:44.266Z,944.02
2022-11-09T00:43:54.269Z,944.02
2022-11-09T00:44:04.283Z,944.02
2022-11-09T00:44:14.311Z,943.99
2022-11-09T00:44:24.271Z,943.99
2022-11-09T00:44:34.266Z,944.01
2022-11-09T00:44:44.266Z,944.01
2022-11-09T00:44:54.277Z,944.00
2022-11-09T00:45:04.295Z,944.02
2022-11-09T00:45:14.269Z,944.02
2022-11-09T00:45:24.272Z,944.00
2022-11-09T00:45:34.272Z,944.02
2022-11-09T00:45:44.273Z,944.05
2022-11-09T00:45:54.274Z,944.02
2022-11-09T00:46:04.286Z,944.03
2022-11-09T00:46:14.275Z,944.02
2022-11-09T00:46:24.282Z,944.06
2022-11-09T00:46:34.278Z,944.07
2022-11-09T00:46:44.279Z,944.05
2022-11-09T00:46:54.272Z,944.02
2022-11-09T00:47:04.293Z,944.02
2022-11-09T00:47:14.286Z,944.00
2022-11-09T00:47:24.274Z,944.03
2022-11-09T00:47:34.276Z,944.02
2022-11-09T00:47:44.279Z,943.97
2022-11-09T00:47:54.284Z,944.02
2022-11-09T00:48:04.292Z,943.99
2022-11-09T00:48:14.281Z,943.98
2022-11-09T00:48:24.279Z,943.99
2022-11-09T00:48:34.283Z,943.98
2022-11-09T00:48:44.282Z,943.99
2022-11-09T00:48:54.283Z,943.97
2022-11-09T00:49:04.297Z,943.99
2022-11-09T00:49:14.282Z,943.97
2022-11-09T00:49:24.284Z,943.96
2022-11-09T00:49:34.288Z,944.00
2022-11-09T00:49:44.289Z,944.00
2022-11-09T00:49:54.282Z,944.00
2022-11-09T00:50:04.307Z,944.01
2022-11-09T00:50:14.291Z,944.00
2022-11-09T00:50:24.289Z,944.04
2022-11-09T00:50:34.293Z,944.00
2022-11-09T00:50:44.294Z,944.01
2022-11-09T00:50:54.299Z,944.03
2022-11-09T00:51:04.310Z,944.01
2022-11-09T00:51:14.309Z,944.04
2022-11-09T00:51:24.298Z,944.00
2022-11-09T00:51:34.311Z,943.97
2022-11-09T00:51:44.301Z,943.96
2022-11-09T00:51:54.307Z,944.01
2022-11-09T00:52:04.307Z,943.98
2022-11-09T00:52:30.186Z,943.99
2022-11-09T00:52:30.523Z,943.96
2022-11-09T00:52:40.530Z,943.96
2022-11-09T00:52:50.514Z,943.97
2022-11-09T00:53:00.514Z,943.95
2022-11-09T00:53:10.556Z,943.94
2022-11-09T00:53:20.993Z,943.95
2022-11-09T00:53:30.514Z,943.95
2022-11-09T00:56:10.719Z,943.88
2022-11-09T00:56:20.694Z,943.91
2022-11-09T00:56:30.710Z,943.87
2022-11-09T00:56:40.690Z,943.85
2022-11-09T00:56:50.688Z,943.88
2022-11-09T00:57:00.728Z,943.82
2022-11-09T00:57:10.695Z,943.88
2022-11-09T00:57:20.700Z,943.87
2022-11-09T00:57:30.701Z,943.87
2022-11-09T00:57:40.696Z,943.93
2022-11-09T00:57:50.699Z,943.93
2022-11-09T00:58:00.694Z,943.93
2022-11-09T00:58:10.711Z,943.92
2022-11-09T00:58:20.702Z,943.94
2022-11-09T00:58:30.699Z,943.94
2022-11-09T00:58:40.705Z,943.92
2022-11-09T00:58:50.707Z,943.94
2022-11-09T00:59:00.711Z,943.91
2022-11-09T00:59:10.725Z,943.87
2022-11-09T00:59:20.704Z,943.90
2022-11-09T00:59:30.706Z,943.89
2022-11-09T00:59:40.703Z,943.91
2022-11-09T00:59:50.704Z,943.92
2022-11-09T01:00:00.714Z,943.96
2022-11-09T01:00:10.703Z,943.95
2022-11-09T01:00:20.724Z,943.90
2022-11-09T01:00:30.706Z,943.99
2022-11-09T01:00:40.775Z,943.97
2022-11-09T01:00:50.733Z,943.98
2022-11-09T01:01:00.775Z,943.96
2022-11-09T01:01:10.800Z,943.94
2022-11-09T01:01:20.792Z,943.99
2022-11-09T01:01:30.750Z,943.98
2022-11-09T01:01:40.868Z,943.98
2022-11-09T01:01:50.722Z,943.98
2022-11-09T01:02:00.711Z,943.98
2022-11-09T01:02:10.711Z,943.97
2022-11-09T01:02:20.719Z,943.96
2022-11-09T01:02:30.714Z,943.98
2022-11-09T01:02:40.714Z,943.95
2022-11-09T01:02:50.718Z,943.95
2022-11-09T01:03:00.712Z,943.96
2022-11-09T01:03:10.713Z,943.95
2022-11-09T01:03:21.082Z,943.95
2022-11-09T01:03:30.720Z,943.97
2022-11-09T01:03:40.715Z,943.95
2022-11-09T01:03:50.729Z,943.94
2022-11-09T01:04:01.597Z,943.94
2022-11-09T01:04:10.721Z,943.95
2022-11-09T01:04:20.738Z,943.93
2022-11-09T01:04:30.714Z,943.92
2022-11-09T01:04:40.727Z,943.94
2022-11-09T01:04:50.718Z,943.91
2022-11-09T01:05:01.584Z,943.93
2022-11-09T01:05:10.726Z,943.95
2022-11-09T01:05:20.771Z,943.94
2022-11-09T01:05:31.583Z,943.90
2022-11-09T01:05:40.725Z,943.91
2022-11-09T01:05:50.739Z,943.93
2022-11-09T01:06:00.724Z,943.92
2022-11-09T01:06:10.724Z,943.92
2022-11-09T01:06:20.729Z,943.92
2022-11-09T01:06:31.487Z,943.90
2022-11-09T01:06:40.785Z,943.90
2022-11-09T01:06:50.793Z,943.91
2022-11-09T01:08:07.221Z,943.93
2022-11-09T01:08:17.180Z,943.94
2022-11-09T01:08:27.172Z,943.93
2022-11-09T01:08:37.205Z,943.94
2022-11-09T01:08:47.174Z,943.93
2022-11-09T01:08:57.178Z,943.93
2022-11-09T01:09:07.302Z,943.93
2022-11-09T01:09:17.180Z,943.94
2022-11-09T01:09:27.176Z,943.95
2022-11-09T01:09:37.179Z,943.95
2022-11-09T01:09:47.183Z,943.94
2022-11-09T01:09:57.183Z,943.96
2022-11-09T01:10:07.187Z,943.94
2022-11-09T01:10:17.198Z,943.97
2022-11-09T01:11:33.965Z,943.94
2022-11-09T01:11:43.930Z,943.93
2022-11-09T01:11:53.941Z,943.95
2022-11-09T01:12:03.932Z,943.92
2022-11-09T01:12:13.933Z,943.91
2022-11-09T01:12:23.953Z,943.90
2022-11-09T01:12:33.936Z,943.88
2022-11-09T01:12:43.937Z,943.91
2022-11-09T01:12:53.935Z,943.88
2022-11-09T01:13:03.936Z,943.84
2022-11-09T01:13:13.952Z,943.89
2022-11-09T01:13:23.944Z,943.91
2022-11-09T01:13:33.940Z,943.89
2022-11-09T01:13:43.941Z,943.91
2022-11-09T01:14:05.674Z,943.92
2022-11-09T01:14:06.657Z,943.88
2022-11-09T01:14:16.026Z,943.92
2022-11-09T01:14:26.020Z,943.90
2022-11-09T01:14:36.656Z,943.90
2022-11-09T01:14:46.021Z,943.90
2022-11-09T01:15:35.632Z,943.90
2022-11-09T01:15:36.026Z,943.85
2022-11-09T01:15:45.931Z,943.87
2022-11-09T01:15:55.933Z,943.91
2022-11-09T01:16:05.943Z,943.89
2022-11-09T01:16:15.934Z,943.91
2022-11-09T01:16:25.953Z,943.89
2022-11-09T01:16:35.931Z,943.92
2022-11-09T01:16:45.935Z,943.92
2022-11-09T01:16:55.953Z,943.89
2022-11-09T01:17:06.691Z,943.88
2022-11-09T01:17:15.932Z,943.87
2022-11-09T01:17:25.942Z,943.89
2022-11-09T01:17:36.677Z,943.90
2022-11-09T01:17:45.935Z,943.89
2022-11-09T01:17:55.954Z,943.90
2022-11-09T01:18:06.681Z,943.91
2022-11-09T01:18:15.938Z,943.90
2022-11-09T01:18:25.945Z,943.91
2022-11-09T01:18:35.940Z,943.88
2022-11-09T01:18:45.937Z,943.87
2022-11-09T01:18:55.955Z,943.93
2022-11-09T01:19:05.940Z,943.93
2022-11-09T01:19:15.949Z,943.91
2022-11-09T01:19:25.940Z,943.92
2022-11-09T01:19:35.947Z,943.94
2022-11-09T01:19:45.945Z,943.92
2022-11-09T01:19:55.960Z,943.95
2022-11-09T01:20:05.959Z,943.91
2022-11-09T01:20:15.944Z,943.97
2022-11-09T01:20:25.944Z,943.89
2022-11-09T01:20:35.947Z,943.94
2022-11-09T01:20:45.948Z,943.88
2022-11-09T01:20:55.977Z,943.87
2022-11-09T01:21:05.952Z,943.88
2022-11-09T01:21:15.948Z,943.87
2022-11-09T01:21:25.963Z,943.85
2022-11-09T01:21:35.946Z,943.85
2022-11-09T01:21:45.952Z,943.84
2022-11-09T01:21:55.952Z,943.83
2022-11-09T01:22:05.964Z,943.85
2022-11-09T01:22:15.950Z,943.84
2022-11-09T01:22:25.952Z,943.88
2022-11-09T01:22:35.954Z,943.85
2022-11-09T01:22:45.954Z,943.82
2022-11-09T01:22:55.959Z,943.88
2022-11-09T01:23:05.966Z,943.89
2022-11-09T01:23:16.402Z,943.82
2022-11-09T01:23:25.959Z,943.80
2022-11-09T01:23:35.953Z,943.85
2022-11-09T01:23:45.954Z,943.82
2022-11-09T01:23:55.958Z,943.88
2022-11-09T01:24:05.973Z,943.86
2022-11-09T01:24:15.957Z,943.86
2022-11-09T01:24:25.960Z,943.86
2022-11-09T01:24:35.956Z,943.85
2022-11-09T01:24:45.957Z,943.89
2022-11-09T01:26:07.606Z,943.82
2022-11-09T01:26:17.617Z,943.87
2022-11-09T01:26:27.607Z,943.88
2022-11-09T01:26:37.600Z,943.80
2022-11-09T01:26:47.618Z,943.84
2022-11-09T01:26:57.603Z,943.85
2022-11-09T01:27:07.605Z,943.84
2022-11-09T01:27:17.609Z,943.81
2022-11-09T01:27:27.604Z,943.86
2022-11-09T01:27:37.617Z,943.87
2022-11-09T01:27:47.612Z,943.84
2022-11-09T01:27:57.607Z,943.86
2022-11-09T01:28:07.607Z,943.77
2022-11-09T01:28:17.612Z,943.83
2022-11-09T01:28:27.612Z,943.91
2022-11-09T01:29:51.948Z,943.88
2022-11-09T01:30:01.932Z,943.90
2022-11-09T01:30:11.944Z,943.89
2022-11-09T01:31:51.390Z,943.96
2022-11-09T01:33:13.793Z,943.98
2022-11-09T01:33:23.767Z,943.92
2022-11-09T01:33:33.778Z,943.97
2022-11-09T01:33:43.769Z,943.93
2022-11-09T01:33:53.767Z,943.93
2022-11-09T01:34:03.781Z,943.97
2022-11-09T01:34:13.768Z,943.95
2022-11-09T01:34:23.778Z,943.90
2022-11-09T01:34:33.779Z,944.00
2022-11-09T01:34:43.776Z,943.87
2022-11-09T01:34:53.777Z,943.94
2022-11-09T01:35:03.771Z,943.95
2022-11-09T01:37:19.841Z,943.99
2022-11-09T01:37:28.334Z,943.99
2022-11-09T01:37:38.316Z,943.99
2022-11-09T01:37:48.319Z,944.00
2022-11-09T01:37:58.349Z,943.97
2022-11-09T01:38:08.318Z,944.01
2022-11-09T01:38:30.378Z,944.04
2022-11-09T01:38:30.710Z,944.02
2022-11-09T01:38:40.702Z,943.97
2022-11-09T01:38:50.717Z,944.02
2022-11-09T01:39:00.700Z,943.99
2022-11-09T01:39:10.701Z,944.04
2022-11-09T01:39:20.710Z,944.03
2022-11-09T01:39:30.707Z,944.00
2022-11-09T01:40:59.038Z,943.98
2022-11-09T01:41:09.046Z,944.00
2022-11-09T01:41:19.026Z,944.00
2022-11-09T01:41:29.039Z,943.92
2022-11-09T01:41:39.048Z,943.97
2022-11-09T01:41:49.040Z,943.90
2022-11-09T01:41:59.033Z,943.95
2022-11-09T01:42:09.031Z,943.96
2022-11-09T01:42:19.036Z,943.98
2022-11-09T01:42:29.058Z,943.95
2022-11-09T01:42:39.039Z,943.97
2022-11-09T01:42:49.035Z,943.97
2022-11-09T01:42:59.038Z,943.89
2022-11-09T01:43:09.039Z,943.91
2022-11-09T01:43:19.400Z,943.85
2022-11-09T01:43:29.057Z,943.92
2022-11-09T01:43:39.040Z,943.91
2022-11-09T01:43:49.047Z,943.92
2022-11-09T01:43:59.045Z,943.93
2022-11-09T01:44:09.042Z,943.90
2022-11-09T01:44:19.046Z,943.93
2022-11-09T01:45:34.105Z,943.91
2022-11-09T01:45:44.126Z,943.93
2022-11-09T01:45:54.094Z,943.94
2022-11-09T01:46:04.096Z,943.96
2022-11-09T01:46:14.111Z,943.95
2022-11-09T01:46:24.099Z,943.93
2022-11-09T01:46:34.101Z,943.96
2022-11-09T01:46:44.101Z,943.92
2022-11-09T01:46:54.109Z,943.92
2022-11-09T01:47:04.117Z,943.92
2022-11-09T01:47:14.110Z,943.92
2022-11-09T01:47:24.103Z,943.94
2022-11-09T01:47:34.119Z,943.94
2022-11-09T01:47:44.103Z,943.97
2022-11-09T01:47:54.114Z,943.93
2022-11-09T01:48:04.111Z,943.94
2022-11-09T01:48:14.114Z,943.91
2022-11-09T01:48:24.110Z,943.91
2022-11-09T01:48:34.117Z,943.95
2022-11-09T01:48:44.112Z,943.95
2022-11-09T01:48:54.110Z,943.96
2022-11-09T01:49:04.112Z,943.92
2022-11-09T01:49:27.544Z,943.95
2022-11-09T01:49:27.888Z,943.92
2022-11-09T01:49:37.867Z,943.92
2022-11-09T01:49:47.882Z,943.96
2022-11-09T01:49:57.867Z,943.95
2022-11-09T01:50:07.868Z,943.91
2022-11-09T01:50:39.839Z,943.93
2022-11-09T01:50:40.261Z,943.95
2022-11-09T01:50:50.180Z,943.92
2022-11-09T01:51:00.184Z,943.93
2022-11-09T01:51:10.233Z,943.91
2022-11-09T01:51:20.185Z,943.92
2022-11-09T01:51:30.190Z,943.90
2022-11-09T01:51:40.197Z,943.90
2022-11-09T01:51:50.186Z,943.93
2022-11-09T01:52:00.232Z,943.87
2022-11-09T01:52:10.189Z,943.87
2022-11-09T01:52:20.211Z,943.92
2022-11-09T01:52:30.201Z,943.92
2022-11-09T01:52:40.194Z,943.94
2022-11-09T01:52:50.193Z,943.91
2022-11-09T01:53:00.248Z,943.95
2022-11-09T01:53:10.200Z,943.91
2022-11-09T01:53:20.551Z,943.89
2022-11-09T01:53:30.195Z,943.91
2022-11-09T01:53:40.211Z,943.88
2022-11-09T01:53:50.193Z,943.94
2022-11-09T01:54:00.246Z,943.94
2022-11-09T01:54:10.210Z,943.91
2022-11-09T01:54:20.197Z,943.92
2022-11-09T01:54:30.201Z,943.92
2022-11-09T01:54:40.219Z,943.91
2022-11-09T01:54:50.210Z,943.90
2022-11-09T01:55:00.200Z,943.94
2022-11-09T01:55:10.258Z,943.92
2022-11-09T01:55:20.199Z,943.94
2022-11-09T01:55:30.201Z,943.94
2022-11-09T01:55:40.216Z,943.91
2022-11-09T01:55:50.205Z,943.87
2022-11-09T01:56:00.209Z,943.91
2022-11-09T01:56:10.267Z,943.92
2022-11-09T01:56:20.205Z,943.93
2022-11-09T01:56:30.216Z,943.88
2022-11-09T01:56:40.204Z,943.94
2022-11-09T01:56:50.205Z,943.92
2022-11-09T01:57:00.211Z,943.91
2022-11-09T01:57:10.207Z,943.91
2022-11-09T01:57:20.266Z,943.90
2022-11-09T01:57:30.212Z,943.94
2022-11-09T01:57:40.209Z,943.94
2022-11-09T01:57:50.209Z,943.91
2022-11-09T01:58:00.215Z,943.89
2022-11-09T01:58:10.220Z,943.91
2022-11-09T01:58:20.272Z,943.95
2022-11-09T01:58:30.223Z,943.91
2022-11-09T01:58:40.213Z,943.94
2022-11-09T01:58:50.219Z,943.93
2022-11-09T01:59:00.217Z,943.93
2022-11-09T01:59:10.219Z,943.92
2022-11-09T01:59:20.219Z,943.93
2022-11-09T01:59:30.289Z,943.97
2022-11-09T01:59:40.220Z,943.94
2022-11-09T01:59:50.219Z,943.94
2022-11-09T02:00:00.224Z,943.98
2022-11-09T02:00:10.221Z,943.97
2022-11-09T02:00:20.225Z,943.93
2022-11-09T02:00:30.281Z,943.95
2022-11-09T02:00:40.224Z,943.95
2022-11-09T02:00:50.273Z,943.94
2022-11-09T02:01:00.329Z,943.95
2022-11-09T02:01:10.292Z,943.97
2022-11-09T02:01:20.334Z,943.85
2022-11-09T02:01:30.361Z,943.96
2022-11-09T02:01:40.309Z,943.94
2022-11-09T02:01:50.226Z,943.91
2022-11-09T02:02:00.228Z,943.95
2022-11-09T02:02:10.234Z,943.93
2022-11-09T02:02:20.231Z,943.94
2022-11-09T02:02:30.275Z,943.94
2022-11-09T02:02:40.237Z,943.95
2022-11-09T02:02:50.234Z,943.95
2022-11-09T02:03:00.233Z,943.97
2022-11-09T02:03:10.236Z,943.91
2022-11-09T02:03:20.572Z,943.95
2022-11-09T02:03:30.279Z,943.94
2022-11-09T02:03:40.244Z,943.91
2022-11-09T02:03:50.233Z,943.91
2022-11-09T02:04:00.241Z,943.93
2022-11-09T02:04:10.237Z,943.94
2022-11-09T02:04:20.240Z,943.97
2022-11-09T02:04:30.248Z,943.92
2022-11-09T02:04:40.296Z,943.86
2022-11-09T02:04:50.238Z,943.99
2022-11-09T02:05:00.240Z,943.96
2022-11-09T02:05:10.242Z,943.95
2022-11-09T02:05:20.243Z,943.95
2022-11-09T02:05:30.253Z,943.94
2022-11-09T02:05:40.299Z,943.93
2022-11-09T02:05:50.242Z,943.94
2022-11-09T02:06:00.254Z,943.94
2022-11-09T02:06:10.280Z,943.96
2022-11-09T02:06:20.245Z,943.97
2022-11-09T02:06:30.396Z,943.97
2022-11-09T02:06:40.316Z,943.96
2022-11-09T02:06:50.390Z,943.94
2022-11-09T02:07:00.367Z,943.96
2022-11-09T02:07:10.358Z,943.88
2022-11-09T02:07:20.255Z,943.92
2022-11-09T02:07:30.257Z,944.00
2022-11-09T02:07:40.258Z,943.99
2022-11-09T02:07:50.257Z,943.97
2022-11-09T02:08:00.318Z,943.98
2022-11-09T02:09:26.647Z,943.97
2022-11-09T02:09:36.660Z,943.95
2022-11-09T02:09:46.649Z,943.99
2022-11-09T02:09:56.642Z,943.99
2022-11-09T02:11:54.708Z,943.99
2022-11-09T02:12:04.686Z,943.97
2022-11-09T02:13:20.076Z,943.95
2022-11-09T02:13:29.756Z,943.90
2022-11-09T02:13:39.742Z,943.92
2022-11-09T02:13:49.736Z,943.93
2022-11-09T02:13:59.754Z,943.97
2022-11-09T02:14:09.740Z,943.95
2022-11-09T02:14:19.745Z,943.94
2022-11-09T02:14:29.746Z,944.00
2022-11-09T02:14:39.749Z,943.99
2022-11-09T02:14:49.757Z,943.98
2022-11-09T02:14:59.750Z,943.96
2022-11-09T02:15:09.745Z,943.96
2022-11-09T02:15:19.760Z,943.95
2022-11-09T02:15:29.748Z,943.97
2022-11-09T02:15:45.492Z,943.96
2022-11-09T02:15:50.774Z,943.93
2022-11-09T02:15:59.757Z,943.94
2022-11-09T02:16:09.758Z,943.90
2022-11-09T02:16:19.767Z,943.91
2022-11-09T02:19:18.403Z,943.92
2022-11-09T02:19:28.384Z,943.91
2022-11-09T02:19:38.395Z,943.98
2022-11-09T02:19:48.398Z,943.95
2022-11-09T02:19:58.387Z,943.93
2022-11-09T02:20:08.391Z,943.93
2022-11-09T02:20:19.383Z,943.96
2022-11-09T02:20:28.399Z,943.94
2022-11-09T02:20:38.429Z,943.98
2022-11-09T02:21:57.555Z,943.96
2022-11-09T02:22:07.614Z,943.96
2022-11-09T02:22:17.555Z,943.99
2022-11-09T02:22:27.547Z,943.89
2022-11-09T02:22:37.619Z,943.88
2022-11-09T02:22:47.552Z,943.93
2022-11-09T02:22:57.546Z,943.98
2022-11-09T02:23:07.554Z,943.89
2022-11-09T02:23:17.839Z,943.89
2022-11-09T02:23:27.596Z,943.95
2022-11-09T02:23:37.548Z,943.94
2022-11-09T02:23:47.553Z,943.98
2022-11-09T02:23:57.551Z,943.97
2022-11-09T02:24:07.551Z,943.94
2022-11-09T02:24:17.566Z,943.99
2022-11-09T02:24:27.552Z,944.01
2022-11-09T02:24:37.555Z,943.98
2022-11-09T02:24:47.597Z,943.97
2022-11-09T02:24:57.556Z,943.97
2022-11-09T02:25:07.556Z,943.99
2022-11-09T02:25:17.558Z,943.97
2022-11-09T02:27:03.449Z,943.93
2022-11-09T02:27:14.065Z,943.99
2022-11-09T02:27:23.436Z,943.94
2022-11-09T02:27:33.425Z,943.98
2022-11-09T02:27:43.428Z,943.97
2022-11-09T02:27:53.441Z,943.99
2022-11-09T02:28:03.430Z,944.00
2022-11-09T02:28:13.463Z,944.00
2022-11-09T02:29:37.009Z,943.81
2022-11-09T02:29:46.999Z,943.99
2022-11-09T02:29:56.990Z,943.88
2022-11-09T02:30:06.994Z,943.92
2022-11-09T02:30:16.999Z,943.96
2022-11-09T02:30:26.995Z,943.97
2022-11-09T02:30:36.996Z,943.95
2022-11-09T02:30:46.997Z,943.96
2022-11-09T02:30:56.993Z,943.97
2022-11-09T02:31:07.022Z,944.00
2022-11-09T02:31:17.000Z,943.93
2022-11-09T02:31:27.005Z,943.94
2022-11-09T02:31:37.005Z,943.95
2022-11-09T02:31:47.000Z,943.97
2022-11-09T02:31:57.001Z,943.97
2022-11-09T02:33:16.003Z,944.00
2022-11-09T02:33:25.832Z,944.00
2022-11-09T02:33:35.862Z,944.00
2022-11-09T02:34:53.794Z,944.00
2022-11-09T02:35:02.321Z,944.01
2022-11-09T02:35:12.306Z,944.04
2022-11-09T02:35:22.306Z,944.04
2022-11-09T02:35:32.347Z,944.03
2022-11-09T02:37:01.810Z,944.05
2022-11-09T02:37:11.814Z,944.03
2022-11-09T02:37:21.800Z,944.00
2022-11-09T02:37:31.805Z,944.01
2022-11-09T02:37:41.823Z,944.02
2022-11-09T02:37:51.810Z,944.02
2022-11-09T02:38:01.859Z,944.01
2022-11-09T02:38:11.813Z,944.03
2022-11-09T02:38:21.811Z,944.02
2022-11-09T02:38:31.824Z,944.03
2022-11-09T02:38:41.821Z,944.02
2022-11-09T02:40:33.960Z,944.04
2022-11-09T02:40:43.910Z,944.05
2022-11-09T02:40:53.918Z,944.05
2022-11-09T02:41:03.907Z,944.03
2022-11-09T02:41:13.907Z,944.04
2022-11-09T02:41:23.926Z,944.00
2022-11-09T02:41:33.918Z,944.03
2022-11-09T02:41:43.910Z,944.02
2022-11-09T02:41:53.907Z,944.04
2022-11-09T02:42:06.772Z,944.03
2022-11-09T02:42:20.066Z,943.98
2022-11-09T02:42:24.912Z,944.04
2022-11-09T02:42:33.904Z,944.07
2022-11-09T02:42:43.918Z,944.03
2022-11-09T02:42:53.914Z,944.06
2022-11-09T02:43:03.910Z,944.07